Time;durP1;ratioP1;P1;durP2;ratioP2;P2;SDS_P1;SDS_P2;PMS_P1;PMS_P2;Temp;Humidity;BMP_temperature;BMP_pressure;BME280_temperature;BME280_humidity;BME280_pressure;Samples;Min_cycle;Max_cycle;Signal;HPM_P1;HPM_P2
2022/11/09 00:01:39;;;;;;;10.20;2.38;;;;;;;14.77;100.00;100437.34;5027877;28;20053;-63
2022/11/09 00:04:05;;;;;;;12.50;2.67;;;;;;;14.67;100.00;100444.97;5027492;28;20433;-64
2022/11/09 00:06:31;;;;;;;11.20;2.13;;;;;;;14.74;100.00;100442.81;5027724;28;20104;-65
2022/11/09 00:08:57;;;;;;;11.02;2.30;;;;;;;14.56;100.00;100434.97;5044406;28;20103;-67
2022/11/09 00:11:23;;;;;;;10.40;2.08;;;;;;;14.52;100.00;100449.34;5048298;28;20515;-67
2022/11/09 00:13:48;;;;;;;11.40;2.72;;;;;;;14.47;100.00;100444.31;5046272;28;20033;-67
2022/11/09 00:16:18;;;;;;;9.45;2.28;;;;;;;14.51;100.00;100451.16;5047810;28;20423;-58
2022/11/09 00:18:46;;;;;;;9.32;1.83;;;;;;;14.36;100.00;100436.97;5047541;28;20051;-66
2022/11/09 00:21:16;;;;;;;14.27;2.35;;;;;;;14.35;100.00;100429.09;5047225;28;20095;-66
2022/11/09 00:23:42;;;;;;;12.88;2.45;;;;;;;14.14;100.00;100440.81;5047987;28;20471;-67
2022/11/09 00:26:09;;;;;;;10.68;2.47;;;;;;;14.21;100.00;100441.31;5048852;28;20035;-64
2022/11/09 00:28:35;;;;;;;10.77;2.28;;;;;;;14.15;100.00;100437.22;5050849;28;20025;-66
2022/11/09 00:31:11;;;;;;;12.25;2.33;;;;;;;14.10;100.00;100431.34;5051175;28;20159;-65
2022/11/09 00:33:37;;;;;;;12.40;2.13;;;;;;;14.03;100.00;100432.63;5050997;28;20017;-65
2022/11/09 00:36:09;;;;;;;8.43;2.10;;;;;;;14.01;100.00;100437.16;5050438;28;20563;-66
2022/11/09 00:38:35;;;;;;;11.15;2.38;;;;;;;14.00;100.00;100435.44;5051477;28;20090;-65
2022/11/09 00:41:04;;;;;;;11.50;2.92;;;;;;;13.90;100.00;100443.03;5051330;28;20356;-66
2022/11/09 00:43:29;;;;;;;11.93;2.13;;;;;;;13.87;100.00;100437.88;5051281;28;20420;-67
2022/11/09 00:45:55;;;;;;;10.65;2.58;;;;;;;13.82;100.00;100446.06;5051056;28;20033;-64
2022/11/09 00:48:20;;;;;;;10.10;2.13;;;;;;;13.83;100.00;100439.88;5051432;28;20025;-66
2022/11/09 00:50:53;;;;;;;15.15;2.45;;;;;;;13.78;100.00;100441.88;5050812;28;20029;-65
2022/11/09 00:53:19;;;;;;;17.52;2.47;;;;;;;13.75;100.00;100431.47;5050657;28;20059;-66
2022/11/09 00:55:56;;;;;;;13.63;2.30;;;;;;;13.74;100.00;100435.91;5049610;28;20029;-66
2022/11/09 00:58:21;;;;;;;11.00;1.98;;;;;;;13.69;100.00;100445.06;5050523;28;20040;-62
2022/11/09 01:00:47;;;;;;;16.77;2.40;;;;;;;13.65;100.00;100439.06;5050713;28;20052;-66
2022/11/09 01:03:12;;;;;;;18.40;2.83;;;;;;;13.70;100.00;100428.22;5049637;28;20025;-65
2022/11/09 01:05:40;;;;;;;14.57;2.80;;;;;;;13.69;100.00;100439.75;5050089;28;20356;-65
2022/11/09 01:08:06;;;;;;;12.57;2.10;;;;;;;13.61;100.00;100443.66;5050587;28;20025;-63
2022/11/09 01:10:31;;;;;;;14.80;2.78;;;;;;;13.63;100.00;100443.56;5050594;28;20099;-63
2022/11/09 01:12:57;;;;;;;11.60;2.25;;;;;;;13.55;100.00;100453.72;5050605;28;20039;-67
2022/11/09 01:15:22;;;;;;;10.68;2.33;;;;;;;13.61;100.00;100445.47;5051013;28;20119;-65
2022/11/09 01:17:47;;;;;;;13.40;2.50;;;;;;;13.62;100.00;100447.16;5050285;28;20021;-65
2022/11/09 01:20:14;;;;;;;10.88;2.30;;;;;;;13.62;100.00;100449.81;5048286;28;20044;-64
2022/11/09 01:22:39;;;;;;;9.15;2.40;;;;;;;13.66;100.00;100447.88;5050443;28;20025;-66
2022/11/09 01:25:05;;;;;;;14.27;2.65;;;;;;;13.70;100.00;100449.41;5042351;28;20048;-64
2022/11/09 01:27:31;;;;;;;12.73;2.13;;;;;;;13.66;100.00;100437.28;5030409;28;20030;-64
2022/11/09 01:29:57;;;;;;;9.50;2.17;;;;;;;13.61;100.00;100450.75;5029719;28;20028;-67
2022/11/09 01:32:22;;;;;;;17.48;2.55;;;;;;;13.61;100.00;100445.47;5030591;28;20025;-67
2022/11/09 01:34:47;;;;;;;12.43;2.42;;;;;;;13.67;100.00;100446.91;5029996;28;20353;-66
2022/11/09 01:37:12;;;;;;;14.82;2.65;;;;;;;13.64;100.00;100467.31;5029104;28;20498;-64
2022/11/09 01:39:38;;;;;;;10.90;2.50;;;;;;;13.64;100.00;100469.13;5029702;28;20047;-66
2022/11/09 01:42:03;;;;;;;11.10;2.42;;;;;;;13.59;100.00;100464.06;5030004;28;20106;-67
2022/11/09 01:44:29;;;;;;;17.27;3.10;;;;;;;13.63;100.00;100467.38;5030559;28;20448;-65
2022/11/09 01:47:02;;;;;;;13.27;2.92;;;;;;;13.55;100.00;100473.13;5028648;28;20033;-63
2022/11/09 01:49:45;;;;;;;12.52;2.38;;;;;;;13.66;100.00;100446.06;5045642;28;20108;-66
2022/11/09 01:52:17;;;;;;;13.05;2.33;;;;;;;13.70;100.00;100454.69;5029269;28;20405;-62
2022/11/09 01:54:48;;;;;;;9.75;2.40;;;;;;;13.67;100.00;100447.78;5047213;28;20041;-66
2022/11/09 01:57:27;;;;;;;12.02;2.42;;;;;;;13.64;100.00;100446.13;5049772;28;20025;-63
2022/11/09 02:00:15;;;;;;;13.63;2.80;;;;;;;13.69;100.00;100445.06;5049142;28;20032;-66
2022/11/09 02:02:47;;;;;;;12.63;2.53;;;;;;;13.73;100.00;100454.53;5049620;28;20052;-67
2022/11/09 02:05:16;;;;;;;13.88;2.42;;;;;;;13.69;100.00;100455.66;5047942;28;20721;-64
2022/11/09 02:07:43;;;;;;;15.48;2.88;;;;;;;13.71;100.00;100451.09;5082333;22;20423;-63
2022/11/09 02:10:32;;;;;;;13.48;2.75;;;;;;;13.80;100.00;100460.34;5009437;28;20076;-68
2022/11/09 02:12:58;;;;;;;11.55;2.00;;;;;;;13.84;100.00;100461.88;5007861;28;20088;-64
2022/11/09 02:15:24;;;;;;;16.27;3.08;;;;;;;13.80;100.00;100450.63;5007693;28;20427;-71
2022/11/09 02:17:52;;;;;;;18.77;2.80;;;;;;;13.84;100.00;100444.22;5008580;28;20065;-66
2022/11/09 02:20:17;;;;;;;11.93;2.25;;;;;;;13.72;100.00;100448.38;5006999;28;20060;-67
2022/11/09 02:22:43;;;;;;;11.27;2.33;;;;;;;13.62;100.00;100453.31;5009376;28;20022;-67
2022/11/09 02:25:10;;;;;;;11.80;2.35;;;;;;;13.66;100.00;100459.28;5009411;28;20389;-66
2022/11/09 02:27:36;;;;;;;15.90;3.38;;;;;;;13.73;100.00;100452.72;5008518;28;20452;-66
2022/11/09 02:30:03;;;;;;;20.77;2.58;;;;;;;13.69;100.00;100458.28;5008266;28;20112;-65
2022/11/09 02:32:29;;;;;;;14.55;2.30;;;;;;;13.61;100.00;100466.63;5009488;28;20033;-65
2022/11/09 02:34:54;;;;;;;14.65;2.72;;;;;;;13.61;100.00;100475.41;5019713;28;20036;-63
2022/11/09 02:37:30;;;;;;;15.13;2.88;;;;;;;13.59;100.00;100479.94;5008530;28;20026;-67
2022/11/09 02:39:56;;;;;;;11.07;2.42;;;;;;;13.60;100.00;100464.91;5007450;28;20103;-68
2022/11/09 02:42:22;;;;;;;11.57;2.20;;;;;;;13.55;100.00;100459.88;5009499;28;20026;-66
2022/11/09 02:44:51;;;;;;;15.05;2.90;;;;;;;13.44;100.00;100459.53;5008479;28;20087;-65
2022/11/09 02:47:16;;;;;;;;;;;;;;;13.46;100.00;100458.50;5008160;28;20149;-65
2022/11/09 02:49:42;;;;;;;26.50;2.93;;;;;;;13.32;100.00;100461.88;5008346;28;19999;-66
2022/11/09 02:52:07;;;;;;;9.35;2.53;;;;;;;13.32;100.00;100456.59;5008448;28;20443;-67
2022/11/09 02:54:32;;;;;;;12.45;2.45;;;;;;;13.43;100.00;100452.53;5007399;28;20057;-66
2022/11/09 02:56:58;;;;;;;10.15;2.80;;;;;;;13.49;100.00;100462.81;5008388;28;20107;-66
2022/11/09 02:59:23;;;;;;;13.63;3.03;;;;;;;13.36;100.00;100462.56;5008440;28;20029;-66
2022/11/09 03:01:48;;;;;;;16.63;2.95;;;;;;;13.31;100.00;100461.97;5008435;28;20124;-68
2022/11/09 03:04:14;;;;;;;12.68;2.83;;;;;;;13.33;100.00;100458.31;5008485;28;20080;-62
2022/11/09 03:06:39;;;;;;;10.38;2.42;;;;;;;13.28;100.00;100457.69;5008065;28;20053;-66
2022/11/09 03:09:08;;;;;;;12.30;2.47;;;;;;;13.26;100.00;100452.47;5008330;28;20026;-64
2022/11/09 03:11:34;;;;;;;;;;;;;;;13.14;100.00;100461.03;5008955;28;20026;-65
2022/11/09 03:13:59;;;;;;;16.48;2.90;;;;;;;13.13;100.00;100456.69;5008270;28;19913;-65
2022/11/09 03:16:24;;;;;;;13.50;2.42;;;;;;;13.01;100.00;100464.28;5008291;28;20453;-65
2022/11/09 03:18:51;;;;;;;9.13;2.65;;;;;;;13.02;100.00;100470.44;5008941;28;20428;-68
2022/11/09 03:21:16;;;;;;;12.07;2.40;;;;;;;13.02;100.00;100476.59;5007548;28;20030;-66
2022/11/09 03:23:41;;;;;;;17.10;2.45;;;;;;;12.96;100.00;100470.75;5022451;28;20495;-67
2022/11/09 03:26:07;;;;;;;13.32;2.75;;;;;;;12.98;100.00;100474.19;5028293;28;20048;-66
2022/11/09 03:28:32;;;;;;;9.02;2.20;;;;;;;12.97;100.00;100489.19;5027976;28;20082;-65
2022/11/09 03:30:57;;;;;;;15.13;3.20;;;;;;;12.94;100.00;100489.34;5028629;28;20120;-66
2022/11/09 03:33:23;;;;;;;13.55;2.97;;;;;;;12.96;100.00;100499.84;5029166;28;20028;-66
2022/11/09 03:35:48;;;;;;;17.25;2.65;;;;;;;12.91;100.00;100492.13;5027455;28;20037;-67
2022/11/09 03:38:13;;;;;;;13.70;2.40;;;;;;;12.95;100.00;100496.34;5028310;28;20147;-62
2022/11/09 03:40:39;;;;;;;21.00;4.55;;;;;;;12.93;100.00;100502.63;5028379;28;20037;-65
2022/11/09 03:43:04;;;;;;;12.60;2.75;;;;;;;12.98;100.00;100498.00;5026676;28;20025;-63
2022/11/09 03:45:30;;;;;;;10.43;2.20;;;;;;;12.96;100.00;100515.72;5027938;28;20036;-66
2022/11/09 03:47:59;;;;;;;15.15;2.88;;;;;;;12.98;100.00;100522.63;5026722;28;20092;-65
2022/11/09 03:50:28;;;;;;;;;;;;;;;12.92;100.00;100520.31;5027938;28;20712;-65
2022/11/09 03:52:53;;;;;;;;;;;;;;;12.83;100.00;100513.69;5028455;28;19913;-64
2022/11/09 03:55:19;;;;;;;10.93;2.27;;;;;;;12.82;100.00;100521.69;5027134;28;19913;-68
2022/11/09 03:57:45;;;;;;;12.32;2.83;;;;;;;12.86;100.00;100528.53;5027637;28;20287;-67
2022/11/09 04:00:12;;;;;;;8.55;2.10;;;;;;;12.88;100.00;100530.16;5027870;28;20030;-63
2022/11/09 04:02:37;;;;;;;12.65;2.63;;;;;;;12.91;100.00;100536.25;5027039;28;20025;-65
2022/11/09 04:05:03;;;;;;;16.73;2.70;;;;;;;12.97;100.00;100535.91;5026916;28;20052;-65
2022/11/09 04:07:28;;;;;;;10.63;2.00;;;;;;;12.96;100.00;100531.56;5027183;28;20045;-64
2022/11/09 04:09:54;;;;;;;11.43;2.20;;;;;;;12.85;100.00;100530.31;5027567;28;20036;-61
2022/11/09 04:12:19;;;;;;;5.65;1.77;;;;;;;12.94;100.00;100531.66;5007836;28;20113;-65
2022/11/09 04:14:44;;;;;;;16.88;2.35;;;;;;;12.98;100.00;100538.50;5007328;28;20404;-67
2022/11/09 04:17:09;;;;;;;13.63;2.38;;;;;;;13.06;100.00;100524.91;5005986;28;20029;-66
2022/11/09 04:19:35;;;;;;;10.52;2.38;;;;;;;13.14;100.00;100528.03;5008229;28;20025;-65
2022/11/09 04:22:00;;;;;;;11.77;2.00;;;;;;;13.18;100.00;100544.59;5007062;28;20018;-63
2022/11/09 04:24:26;;;;;;;11.32;2.85;;;;;;;13.11;100.00;100544.06;5008052;28;20040;-64
2022/11/09 04:26:51;;;;;;;7.63;1.95;;;;;;;13.18;100.00;100538.47;5008454;28;20013;-68
2022/11/09 04:29:16;;;;;;;10.25;2.17;;;;;;;13.22;100.00;100542.66;5007546;28;20058;-66
2022/11/09 04:31:42;;;;;;;11.93;1.98;;;;;;;13.33;100.00;100544.78;5007945;28;20025;-67
2022/11/09 04:34:07;;;;;;;9.32;1.98;;;;;;;13.22;100.00;100545.31;5006672;28;20098;-65
2022/11/09 04:36:32;;;;;;;10.65;2.28;;;;;;;13.11;100.00;100540.53;5006530;28;20480;-65
2022/11/09 04:38:58;;;;;;;14.13;2.58;;;;;;;13.07;100.00;100546.94;5006672;28;20537;-67
2022/11/09 04:41:23;;;;;;;8.82;2.15;;;;;;;13.04;100.00;100547.94;5006605;28;20042;-67
2022/11/09 04:43:48;;;;;;;17.40;2.70;;;;;;;13.01;100.00;100543.63;5007577;28;20056;-66
2022/11/09 04:46:14;;;;;;;8.65;1.85;;;;;;;13.04;100.00;100542.66;5006744;28;20033;-67
2022/11/09 04:48:39;;;;;;;12.95;2.17;;;;;;;12.89;100.00;100550.38;5007240;28;20368;-67
2022/11/09 04:51:07;;;;;;;10.43;1.90;;;;;;;13.02;100.00;100547.16;5005057;28;20028;-67
2022/11/09 04:53:34;;;;;;;7.97;1.88;;;;;;;12.97;100.00;100557.06;5006330;28;20026;-67
2022/11/09 04:55:59;;;;;;;16.65;3.75;;;;;;;12.95;100.00;100561.59;5007588;28;20030;-64
2022/11/09 04:58:25;;;;;;;13.43;2.05;;;;;;;12.87;100.00;100551.41;5006658;28;20380;-64
2022/11/09 05:00:51;;;;;;;8.43;1.90;;;;;;;12.89;100.00;100560.97;5007703;28;20038;-64
2022/11/09 05:03:16;;;;;;;10.63;1.88;;;;;;;12.78;100.00;100560.63;5007072;28;20030;-65
2022/11/09 05:05:42;;;;;;;12.90;2.03;;;;;;;12.92;100.00;100557.34;5006012;28;20030;-66
2022/11/09 05:08:07;;;;;;;12.48;2.22;;;;;;;12.93;100.00;100555.53;5007393;28;20482;-66
2022/11/09 05:10:33;;;;;;;15.25;2.15;;;;;;;12.85;100.00;100550.59;5010367;28;20037;-64
2022/11/09 05:13:06;;;;;;;9.88;2.13;;;;;;;12.83;100.00;100547.19;5007744;28;20022;-67
2022/11/09 05:15:33;;;;;;;10.98;2.38;;;;;;;12.80;100.00;100540.28;5009918;28;20574;-63
2022/11/09 05:17:58;;;;;;;14.35;2.45;;;;;;;12.68;100.00;100543.50;5010426;28;20164;-66
2022/11/09 05:20:24;;;;;;;9.95;2.47;;;;;;;12.71;100.00;100541.56;5010060;28;20116;-68
2022/11/09 05:25:35;;;;;;;10.68;2.33;;;;;;;12.45;100.00;100548.06;4973821;28;20058;-64
2022/11/09 05:28:00;;;;;;;16.27;3.10;;;;;;;12.36;100.00;100550.22;5010411;28;20511;-65
2022/11/09 05:30:25;;;;;;;12.30;2.60;;;;;;;12.42;100.00;100553.50;5010337;28;20033;-63
2022/11/09 05:32:51;;;;;;;13.07;2.80;;;;;;;12.43;100.00;100560.50;5008755;28;20038;-68
2022/11/09 05:35:16;;;;;;;14.52;2.22;;;;;;;12.33;100.00;100560.94;5008902;28;20037;-63
2022/11/09 05:37:41;;;;;;;9.82;2.00;;;;;;;12.30;100.00;100558.41;5009931;28;20065;-66
2022/11/09 05:40:08;;;;;;;13.48;2.42;;;;;;;12.22;100.00;100565.84;5009071;28;20030;-66
2022/11/09 05:42:34;;;;;;;14.00;2.30;;;;;;;12.21;100.00;100557.06;5010653;28;20036;-65
2022/11/09 05:45:00;;;;;;;13.60;2.65;;;;;;;12.12;100.00;100550.41;5010972;28;20701;-67
2022/11/09 05:47:25;;;;;;;14.45;2.25;;;;;;;12.15;100.00;100559.09;5009845;28;20365;-66
2022/11/09 05:49:50;;;;;;;17.40;2.55;;;;;;;12.12;100.00;100554.81;5010116;28;20097;-65
2022/11/09 05:52:16;;;;;;;14.27;3.45;;;;;;;12.13;100.00;100565.31;5009375;28;20041;-67
2022/11/09 05:54:41;;;;;;;10.50;2.08;;;;;;;12.11;100.00;100561.03;5008556;28;20088;-68
2022/11/09 05:57:06;;;;;;;14.52;2.30;;;;;;;12.16;100.00;100576.69;5009908;28;20037;-69
2022/11/09 05:59:31;;;;;;;9.45;2.05;;;;;;;12.19;100.00;100572.09;5010072;28;20022;-65
2022/11/09 06:01:57;;;;;;;12.45;2.30;;;;;;;12.19;100.00;100574.75;5009267;28;20113;-67
2022/11/09 06:04:22;;;;;;;14.82;2.50;;;;;;;12.20;100.00;100575.63;5009054;28;20108;-67
2022/11/09 06:06:47;;;;;;;19.40;2.42;;;;;;;12.13;100.00;100569.75;5008349;28;20053;-66
2022/11/09 06:09:13;;;;;;;18.45;2.42;;;;;;;12.21;100.00;100578.19;5009777;28;20034;-63
2022/11/09 06:11:38;;;;;;;14.50;2.22;;;;;;;12.15;100.00;100574.94;5009743;28;20026;-66
2022/11/09 06:14:03;;;;;;;13.30;2.28;;;;;;;12.15;100.00;100572.31;5009298;28;20031;-68
2022/11/09 06:16:29;;;;;;;14.68;3.15;;;;;;;12.23;100.00;100578.13;5009106;28;20117;-69
2022/11/09 06:18:54;;;;;;;11.98;2.20;;;;;;;12.26;100.00;100573.53;5009846;28;20022;-64
2022/11/09 06:21:19;;;;;;;15.45;2.50;;;;;;;12.16;100.00;100572.25;5008884;28;20452;-69
2022/11/09 06:23:45;;;;;;;13.00;2.83;;;;;;;12.11;100.00;100577.75;5009403;28;20117;-66
2022/11/09 06:26:10;;;;;;;14.60;2.70;;;;;;;12.19;100.00;100581.84;5009402;28;20030;-65
2022/11/09 06:28:36;;;;;;;21.95;4.07;;;;;;;12.16;100.00;100592.53;5009972;28;20106;-61
2022/11/09 06:31:03;;;;;;;11.82;2.50;;;;;;;12.20;100.00;100581.75;5009486;28;20030;-65
2022/11/09 06:33:30;;;;;;;18.83;2.95;;;;;;;12.24;100.00;100582.47;5008453;28;20106;-66
2022/11/09 06:35:57;;;;;;;14.60;2.95;;;;;;;12.25;100.00;100586.81;5008958;28;20041;-67
2022/11/09 06:38:22;;;;;;;14.77;2.60;;;;;;;12.25;100.00;100587.69;5013110;28;20022;-67
2022/11/09 06:40:52;;;;;;;13.13;3.80;;;;;;;12.30;100.00;100582.19;5029033;28;20032;-63
2022/11/09 06:43:17;;;;;;;13.75;2.55;;;;;;;12.39;100.00;100583.56;5027861;28;20048;-66
2022/11/09 06:45:42;;;;;;;12.70;2.45;;;;;;;12.40;100.00;100584.44;5028972;28;20476;-66
2022/11/09 06:48:09;;;;;;;17.80;2.75;;;;;;;12.41;100.00;100586.13;5028432;28;20025;-65
2022/11/09 06:50:34;;;;;;;13.48;2.97;;;;;;;12.38;100.00;100582.69;5027809;28;20025;-66
2022/11/09 06:53:02;;;;;;;14.18;2.83;;;;;;;12.45;100.00;100590.34;5026828;28;20079;-64
2022/11/09 06:55:28;;;;;;;16.05;3.35;;;;;;;12.48;100.00;100592.84;5028393;28;20386;-65
2022/11/09 06:57:54;;;;;;;15.15;2.75;;;;;;;12.45;100.00;100585.94;5014819;28;20052;-67
2022/11/09 07:00:19;;;;;;;10.05;2.40;;;;;;;12.46;100.00;100595.56;5009122;28;20053;-71
2022/11/09 07:02:45;;;;;;;10.10;2.42;;;;;;;12.39;100.00;100596.78;5008736;28;20192;-65
2022/11/09 07:05:10;;;;;;;13.48;2.70;;;;;;;12.48;100.00;100598.13;5007673;28;20028;-66
2022/11/09 07:07:35;;;;;;;13.82;2.58;;;;;;;12.44;100.00;100596.56;5008697;28;20639;-67
2022/11/09 07:10:00;;;;;;;7.72;1.92;;;;;;;12.51;100.00;100596.22;5007975;28;20246;-68
2022/11/09 07:12:26;;;;;;;9.35;2.55;;;;;;;12.56;100.00;100585.44;4995630;28;20588;-65
2022/11/09 07:14:51;;;;;;;20.30;2.65;;;;;;;12.53;100.00;100580.28;4992688;28;20042;-66
2022/11/09 07:17:16;;;;;;;14.50;2.70;;;;;;;12.58;100.00;100582.72;4992683;28;20105;-67
2022/11/09 07:19:42;;;;;;;19.40;2.95;;;;;;;12.55;100.00;100588.16;4987020;28;20189;-66
2022/11/09 07:22:07;;;;;;;17.83;3.25;;;;;;;12.48;100.00;100582.28;4996884;28;20026;-66
2022/11/09 07:24:32;;;;;;;14.48;2.90;;;;;;;12.47;100.00;100583.22;5000825;28;20488;-63
2022/11/09 07:26:58;;;;;;;16.50;2.50;;;;;;;12.43;100.00;100579.00;5000027;28;20386;-66
2022/11/09 07:29:23;;;;;;;17.88;2.42;;;;;;;12.56;100.00;100593.38;5007137;28;20492;-67
2022/11/09 07:31:48;;;;;;;12.02;2.83;;;;;;;12.55;100.00;100590.78;5006901;28;20045;-65
2022/11/09 07:34:14;;;;;;;15.13;2.25;;;;;;;12.64;100.00;100593.00;5006545;28;20130;-64
2022/11/09 07:36:39;;;;;;;14.93;2.75;;;;;;;12.62;100.00;100594.88;5005479;28;20126;-66
2022/11/09 07:39:05;;;;;;;13.75;3.13;;;;;;;12.70;100.00;100607.72;5007041;28;20109;-63
2022/11/09 07:41:30;;;;;;;13.35;2.50;;;;;;;12.64;100.00;100606.19;5007336;28;20030;-64
2022/11/09 07:43:56;;;;;;;14.85;3.25;;;;;;;12.82;100.00;100601.00;5006737;28;20126;-62
2022/11/09 07:46:22;;;;;;;11.55;2.58;;;;;;;12.75;100.00;100619.81;5007000;28;20053;-66
2022/11/09 07:48:47;;;;;;;10.27;2.47;;;;;;;12.89;100.00;100628.88;5008313;28;20022;-66
2022/11/09 07:51:13;;;;;;;12.40;2.33;;;;;;;12.84;100.00;100626.44;5006648;28;20029;-66
2022/11/09 07:53:38;;;;;;;11.40;2.53;;;;;;;12.86;100.00;100619.28;4998848;28;20031;-68
2022/11/09 07:56:05;;;;;;;12.75;2.60;;;;;;;12.82;100.00;100636.22;4996590;28;20081;-63
2022/11/09 07:58:30;;;;;;;14.20;2.40;;;;;;;12.89;100.00;100627.06;4998511;28;20064;-68
2022/11/09 08:00:56;;;;;;;13.45;2.72;;;;;;;12.87;100.00;100633.38;4999483;28;20380;-67
2022/11/09 08:03:22;;;;;;;12.40;2.75;;;;;;;12.91;100.00;100632.28;4999314;28;20080;-66
2022/11/09 08:05:48;;;;;;;14.70;2.83;;;;;;;12.96;100.00;100634.72;4997690;28;20029;-68
2022/11/09 08:08:15;;;;;;;20.98;2.67;;;;;;;12.97;100.00;100637.28;5000738;28;20042;-58
2022/11/09 08:10:41;;;;;;;13.45;2.30;;;;;;;13.02;100.00;100642.38;5007351;28;20439;-67
2022/11/09 08:13:12;;;;;;;13.70;2.58;;;;;;;13.08;100.00;100642.06;5005778;28;20044;-66
2022/11/09 08:15:39;;;;;;;17.70;2.72;;;;;;;13.18;100.00;100639.00;5006756;28;20072;-62
2022/11/09 08:18:07;;;;;;;16.48;2.75;;;;;;;13.31;100.00;100629.53;5005689;28;20049;-68
2022/11/09 08:20:33;;;;;;;14.20;2.80;;;;;;;13.60;100.00;100642.25;5005074;28;20105;-67
2022/11/09 08:22:58;;;;;;;14.23;2.58;;;;;;;13.60;100.00;100645.78;5006433;28;20129;-66
2022/11/09 08:25:24;;;;;;;13.85;2.55;;;;;;;13.72;100.00;100646.09;5005875;28;20052;-64
2022/11/09 08:27:49;;;;;;;14.93;2.97;;;;;;;13.81;100.00;100650.94;5005851;28;20360;-67
2022/11/09 08:30:18;;;;;;;23.27;3.55;;;;;;;13.80;100.00;100654.53;5006333;28;20058;-67
2022/11/09 08:32:44;;;;;;;11.18;2.70;;;;;;;13.89;100.00;100653.19;5005719;28;20318;-69
2022/11/09 08:35:11;;;;;;;12.82;2.65;;;;;;;13.88;100.00;100659.44;5006162;28;20393;-68
2022/11/09 08:37:37;;;;;;;15.23;3.15;;;;;;;13.95;100.00;100660.84;5007041;28;20018;-63
2022/11/09 08:40:02;;;;;;;15.82;2.40;;;;;;;13.93;100.00;100673.28;5006390;28;20477;-67
2022/11/09 08:42:28;;;;;;;17.27;2.67;;;;;;;13.77;100.00;100671.44;5006721;28;20104;-66
2022/11/09 08:44:53;;;;;;;17.63;3.28;;;;;;;14.02;100.00;100666.66;5007895;28;20485;-66
2022/11/09 08:47:18;;;;;;;15.45;2.85;;;;;;;13.99;100.00;100666.81;5007839;28;20034;-64
2022/11/09 08:49:46;;;;;;;14.60;2.85;;;;;;;14.05;100.00;100670.97;5011278;28;20022;-62
2022/11/09 08:52:11;;;;;;;14.10;2.40;;;;;;;14.00;100.00;100664.09;5010882;28;20427;-64
2022/11/09 08:54:36;;;;;;;17.38;2.92;;;;;;;13.96;100.00;100665.19;5011544;28;20026;-66
2022/11/09 08:57:02;;;;;;;12.15;3.13;;;;;;;13.98;100.00;100670.41;5012082;28;20434;-67
2022/11/09 08:59:27;;;;;;;14.27;3.08;;;;;;;13.99;100.00;100677.41;5009311;28;20034;-68
2022/11/09 09:01:53;;;;;;;15.32;3.00;;;;;;;13.93;100.00;100667.97;5009823;28;20022;-67
2022/11/09 09:04:18;;;;;;;8.55;2.47;;;;;;;14.03;100.00;100676.34;5008843;28;20366;-61
2022/11/09 09:06:43;;;;;;;8.45;2.33;;;;;;;13.99;100.00;100677.41;5009459;28;20531;-66
2022/11/09 09:09:09;;;;;;;12.40;2.50;;;;;;;14.19;100.00;100676.41;4991094;28;20026;-68
2022/11/09 09:11:34;;;;;;;12.82;2.97;;;;;;;14.25;100.00;100673.44;5009945;28;20381;-66
2022/11/09 09:13:59;;;;;;;14.07;3.30;;;;;;;14.14;100.00;100671.34;5009328;28;20127;-68
2022/11/09 09:16:25;;;;;;;15.80;2.47;;;;;;;14.23;100.00;100680.59;5008484;28;20021;-67
2022/11/09 09:18:50;;;;;;;14.18;2.97;;;;;;;14.20;100.00;100674.59;5010515;28;20037;-69
2022/11/09 09:21:15;;;;;;;11.85;2.88;;;;;;;14.11;100.00;100671.50;5010208;28;20108;-66
2022/11/09 09:23:41;;;;;;;14.93;2.90;;;;;;;14.12;100.00;100667.91;5010160;28;20034;-68
2022/11/09 09:26:06;;;;;;;14.13;2.75;;;;;;;14.19;100.00;100678.19;5003415;28;20036;-68
2022/11/09 09:28:32;;;;;;;15.32;2.88;;;;;;;14.08;100.00;100670.78;5006781;28;20488;-65
2022/11/09 09:30:58;;;;;;;17.15;3.05;;;;;;;14.02;100.00;100677.25;4999704;28;20026;-66
2022/11/09 09:33:24;;;;;;;11.10;2.78;;;;;;;14.10;100.00;100680.38;5000372;28;20460;-64
2022/11/09 09:35:50;;;;;;;17.70;2.92;;;;;;;14.11;100.00;100671.50;4997709;28;20026;-64
2022/11/09 09:38:15;;;;;;;14.90;3.22;;;;;;;14.01;100.00;100680.84;4991693;28;20022;-66
2022/11/09 09:41:06;;;;;;;11.88;2.30;;;;;;;14.06;100.00;100681.44;4989821;28;20027;-65
2022/11/09 09:43:42;;;;;;;13.25;2.20;;;;;;;14.22;100.00;100673.59;4989213;28;20045;-67
2022/11/09 09:46:20;;;;;;;18.95;3.65;;;;;;;14.30;100.00;100674.97;4987328;28;20030;-65
2022/11/09 09:48:49;;;;;;;15.07;2.95;;;;;;;14.28;100.00;100681.22;4995075;28;20121;-68
2022/11/09 09:51:26;;;;;;;11.15;2.15;;;;;;;14.30;100.00;100693.53;4996616;28;20030;-63
2022/11/09 09:54:02;;;;;;;15.20;2.80;;;;;;;14.19;100.00;100694.09;4999801;28;20036;-63
2022/11/09 09:56:33;;;;;;;13.70;2.20;;;;;;;14.09;100.00;100697.19;4998019;28;20038;-67
2022/11/09 09:59:17;;;;;;;15.68;3.00;;;;;;;14.37;100.00;100702.88;4995949;28;20038;-64
2022/11/09 10:01:43;;;;;;;15.57;3.00;;;;;;;14.80;100.00;100704.19;4998252;28;20034;-68
2022/11/09 10:04:16;;;;;;;11.75;2.30;;;;;;;14.84;100.00;100719.03;4999077;28;20022;-66
2022/11/09 10:06:57;;;;;;;13.07;2.30;;;;;;;14.70;100.00;100710.00;4994582;28;20054;-66
2022/11/09 10:09:30;;;;;;;7.82;2.85;;;;;;;14.60;100.00;100724.69;4990750;28;20056;-65
2022/11/09 10:12:05;;;;;;;14.88;2.60;;;;;;;14.34;100.00;100726.88;4990113;28;20026;-65
2022/11/09 10:14:59;;;;;;;9.55;2.25;;;;;;;14.34;100.00;100730.41;4989206;28;20484;-63
2022/11/09 10:17:43;;;;;;;8.25;2.35;;;;;;;14.39;100.00;100728.34;4991895;28;20102;-66
2022/11/09 10:20:12;;;;;;;14.00;2.42;;;;;;;14.33;100.00;100747.22;4991718;28;20045;-64
2022/11/09 10:22:51;;;;;;;8.23;2.13;;;;;;;14.38;100.00;100733.72;4997843;28;20037;-68
2022/11/09 10:25:22;;;;;;;11.90;2.33;;;;;;;14.29;100.00;100732.41;4997612;28;20041;-65
2022/11/09 10:27:51;;;;;;;17.38;2.78;;;;;;;14.32;100.00;100732.25;4997197;28;20057;-64
2022/11/09 10:30:19;;;;;;;14.63;2.42;;;;;;;14.28;100.00;100728.94;4997579;28;20515;-66
2022/11/09 10:32:48;;;;;;;8.77;2.10;;;;;;;14.19;100.00;100725.88;4997496;28;20485;-65
2022/11/09 10:35:58;;;;;;;14.00;2.50;;;;;;;14.06;100.00;100721.19;4997887;28;20119;-66
2022/11/09 10:38:28;;;;;;;9.00;2.10;;;;;;;14.21;100.00;100713.41;4987465;28;20040;-66
2022/11/09 10:41:03;;;;;;;15.20;2.42;;;;;;;14.35;100.00;100715.34;4992749;28;20018;-65
2022/11/09 10:43:28;;;;;;;12.13;2.42;;;;;;;14.59;100.00;100726.47;4997718;28;20132;-66
2022/11/09 10:45:59;;;;;;;11.18;2.08;;;;;;;14.95;100.00;100711.34;5004162;28;20097;-66
2022/11/09 10:48:33;;;;;;;7.75;2.50;;;;;;;15.20;100.00;100712.63;4996365;28;20455;-64
2022/11/09 10:50:59;;;;;;;8.95;2.45;;;;;;;15.19;99.60;100715.38;4994010;28;20058;-66
2022/11/09 10:53:29;;;;;;;12.93;2.22;;;;;;;15.17;98.98;100726.06;4997764;28;20463;-64
2022/11/09 10:56:11;;;;;;;10.02;2.40;;;;;;;15.24;99.50;100721.28;4997685;28;20048;-66
2022/11/09 10:58:39;;;;;;;20.83;2.40;;;;;;;15.40;97.94;100716.84;4998852;28;20026;-65
2022/11/09 11:01:12;;;;;;;13.43;2.13;;;;;;;15.16;98.93;100727.03;4997568;28;20031;-66
2022/11/09 11:03:38;;;;;;;14.27;2.28;;;;;;;15.08;97.78;100708.84;4997752;28;20080;-63
2022/11/09 11:06:22;;;;;;;10.82;2.33;;;;;;;14.84;98.68;100706.59;4996101;28;20095;-66
2022/11/09 11:09:10;;;;;;;8.63;1.98;;;;;;;14.56;98.17;100696.59;4996638;28;20455;-63
2022/11/09 11:11:37;;;;;;;13.80;2.03;;;;;;;14.58;99.40;100706.19;4997339;28;20018;-68
2022/11/09 11:14:14;;;;;;;10.77;1.63;;;;;;;14.55;99.63;100701.06;4992936;28;20038;-69
2022/11/09 11:16:41;;;;;;;9.93;2.20;;;;;;;14.53;98.56;100732.94;4997869;28;20421;-66